Damascus, VA

06:22 EDT je la 26an de septembro 2016 (GMT -0400)
Taylor Valley | | Change Station

Elev 2395 ft 36.62 °N, 81.72 °W | Updated 19 seconds ago

Scattered Clouds
Malpliparte nuba
56.9 °F
Sentas kiel 56.9 °F
N
0.0
Vento Varianta Vento from SSOk

hodiaŭ
High -- | Low -- °F
--% Ebla precip.
hieraŭ
High -- | Low -- °F
Precip. -- co
Aerpremo 30.10 co
Vidodistanco 7.0 mejloj
Nuboj Malpliparte nuba 10000 ft
Rosopunkto 56 °F
Humido 98%
Pluvokvanto 0.00 co
Neĝprofundo Not available.
7:18 AM 7:17 PM
Malkreskanta Lunarko, 20% visible
METAR KVJI 261015Z AUTO 00000KT 7SM SCT100 19/19 A3010 RMK AO2 T01920185
Aerpremo 30.10 co
Vidodistanco 7.0 mejloj
Nuboj Malpliparte nuba 10000 ft
Rosopunkto 56 °F
Humido 98%
Pluvokvanto 0.00 co
Neĝprofundo Not available.
7:18 AM 7:17 PM
Malkreskanta Lunarko, 20% visible
METAR KVJI 261015Z AUTO 00000KT 7SM SCT100 19/19 A3010 RMK AO2 T01920185

10-Day Weather Forecast

Almanac

Astronomio

Sep. 26, 2016 Leviĝo Subiro
Aktuala tempo
Civila krepusko
Naŭtika krepusko
Astronomia krepusko
Luno
Daŭro de videbla lumo
Daŭro de tago
Tomorrow will be .
, % of the Moon is Illuminated

Hodiaŭaj ekstremaĵoj

State Highs State Lows

Community

WunderPhotos

Upload Photos

1,941,852 photos uploaded!

WunderBlog® & News

Nearby

Aerkvalito

  Aerkvalito Aerkvalita indico Poluanto
Not available.

Neĝa profundeco

Station Depth Alteco

Earthquake Activity

Urbo Distance Mag. Time & Date
Minimum magnitude displayed is 2.5.

Coastal Water Temperatures

Loko Temperaturo

Stations

Najbaraj veter-stacioj

Loko de stacio Temp Venta
kvazaŭtemperaturo
Rosopunkto Humido Vento Precip. Elev Ĝisdatigita je Tipo
                   

Watches & Warnings

There are currently no watches in effect.